createdAt,value
2017-11-07T00:00:21.793Z,1021.99
2017-11-07T00:01:21.809Z,1022.02
2017-11-07T00:02:21.825Z,1022.02
2017-11-07T00:04:21.857Z,1022.04
2017-11-07T00:05:21.875Z,1022.06
2017-11-07T00:06:21.891Z,1022.07
2017-11-07T00:07:21.907Z,1022.03
2017-11-07T00:08:21.923Z,1022.06
2017-11-07T00:09:21.939Z,1022.05
2017-11-07T00:10:21.951Z,1022.07
2017-11-07T00:11:21.971Z,1022.04
2017-11-07T00:12:21.984Z,1022.05
2017-11-07T00:13:21.999Z,1022.03
2017-11-07T00:14:22.015Z,1022.02
2017-11-07T00:15:22.031Z,1022.07
2017-11-07T00:16:22.046Z,1022.04
2017-11-07T00:17:22.062Z,1022.04
2017-11-07T00:18:22.081Z,1022.04
2017-11-07T00:20:22.110Z,1022.05
2017-11-07T00:21:22.125Z,1022.07
2017-11-07T00:22:22.141Z,1022.06
2017-11-07T00:23:22.160Z,1022.01
2017-11-07T00:24:22.173Z,1021.97
2017-11-07T00:25:22.192Z,1021.96
2017-11-07T00:26:22.208Z,1022.02
2017-11-07T00:27:22.222Z,1022.01
2017-11-07T00:28:22.235Z,1022.03
2017-11-07T00:29:22.252Z,1022.04
2017-11-07T00:30:22.267Z,1022.05
2017-11-07T00:31:22.286Z,1022.05
2017-11-07T00:32:22.298Z,1022.01
2017-11-07T00:33:22.316Z,1022
2017-11-07T00:34:22.331Z,1021.96
2017-11-07T00:36:22.360Z,1021.96
2017-11-07T00:37:22.376Z,1021.96
2017-11-07T00:38:22.401Z,1021.94
2017-11-07T00:39:22.407Z,1021.94
2017-11-07T00:40:22.427Z,1021.95
2017-11-07T00:41:22.439Z,1021.91
2017-11-07T00:42:22.456Z,1021.92
2017-11-07T00:43:22.474Z,1021.89
2017-11-07T00:44:22.490Z,1021.9
2017-11-07T00:45:22.501Z,1021.93
2017-11-07T00:46:22.518Z,1021.91
2017-11-07T00:47:22.533Z,1021.92
2017-11-07T00:48:22.553Z,1021.93
2017-11-07T00:49:22.565Z,1021.96
2017-11-07T00:50:22.580Z,1021.98
2017-11-07T00:52:22.612Z,1021.97
2017-11-07T00:53:22.632Z,1021.99
2017-11-07T00:54:22.645Z,1021.93
2017-11-07T00:55:22.662Z,1021.98
2017-11-07T00:56:22.674Z,1021.99
2017-11-07T00:57:22.689Z,1021.98
2017-11-07T00:58:22.708Z,1022.03
2017-11-07T00:59:22.725Z,1022.08
2017-11-07T01:00:22.737Z,1022.01
2017-11-07T01:01:22.753Z,1022.02
2017-11-07T01:02:22.771Z,1022.02
2017-11-07T01:03:22.787Z,1022.03
2017-11-07T01:04:22.799Z,1022.07
2017-11-07T01:05:22.818Z,1022.05
2017-11-07T01:07:22.850Z,1022.08
2017-11-07T01:08:22.862Z,1022.08
2017-11-07T01:09:22.881Z,1022.08
2017-11-07T01:10:22.908Z,1022.1
2017-11-07T01:11:22.910Z,1022.1
2017-11-07T01:12:22.934Z,1022.09
2017-11-07T01:13:22.940Z,1022.11
2017-11-07T01:14:22.958Z,1022.13
2017-11-07T01:15:22.970Z,1022.09
2017-11-07T01:16:22.990Z,1022.09
2017-11-07T01:17:23.005Z,1022.08
2017-11-07T01:18:23.022Z,1022.09
2017-11-07T01:19:23.033Z,1022.08
2017-11-07T01:20:23.052Z,1022.06
2017-11-07T01:21:23.071Z,1022.05
2017-11-07T01:22:23.091Z,1022.04
2017-11-07T01:23:23.097Z,1021.99
2017-11-07T01:24:23.113Z,1022.02
2017-11-07T01:25:23.126Z,1022.03
2017-11-07T01:26:23.142Z,1022.02
2017-11-07T01:27:23.161Z,1022.02
2017-11-07T01:28:23.172Z,1022.03
2017-11-07T01:29:23.192Z,1022.01
2017-11-07T01:30:23.205Z,1022.04
2017-11-07T01:31:23.218Z,1022.03
2017-11-07T01:32:23.237Z,1022.03
2017-11-07T01:33:23.253Z,1022.03
2017-11-07T01:34:23.265Z,1022.03
2017-11-07T01:35:23.284Z,1021.99
2017-11-07T01:36:23.300Z,1022.06
2017-11-07T01:37:23.309Z,1022.05
2017-11-07T01:39:23.346Z,1022.06
2017-11-07T01:40:23.357Z,1022.08
2017-11-07T01:41:23.377Z,1022.02
2017-11-07T01:42:23.391Z,1022.04
2017-11-07T01:43:23.408Z,1022.03
2017-11-07T01:44:23.423Z,1022.08
2017-11-07T01:45:23.436Z,1022.05
2017-11-07T01:46:23.452Z,1022
2017-11-07T01:47:23.467Z,1022.05
2017-11-07T01:48:23.482Z,1022.05
2017-11-07T01:49:23.499Z,1022.06
2017-11-07T01:50:23.514Z,1022.08
2017-11-07T01:51:23.529Z,1022.08
2017-11-07T01:52:23.544Z,1022.09
2017-11-07T01:53:23.560Z,1022.01
2017-11-07T01:55:23.589Z,1022.03
2017-11-07T01:56:23.601Z,1022
2017-11-07T01:57:23.617Z,1022.03
2017-11-07T01:58:23.636Z,1022.04
2017-11-07T01:59:23.647Z,1022.06
2017-11-07T02:00:23.664Z,1022.04
2017-11-07T02:01:23.678Z,1022.05
2017-11-07T02:02:23.694Z,1022.04
2017-11-07T02:03:23.712Z,1022.03
2017-11-07T02:04:23.727Z,1022
2017-11-07T02:05:23.743Z,1022.02
2017-11-07T02:06:23.756Z,1021.98
2017-11-07T02:07:23.795Z,1021.99
2017-11-07T02:08:23.788Z,1022.05
2017-11-07T02:09:23.805Z,1022.03
2017-11-07T02:11:23.834Z,1022.01
2017-11-07T02:12:23.851Z,1022
2017-11-07T02:13:23.861Z,1022.03
2017-11-07T02:14:23.878Z,1022.01
2017-11-07T02:15:23.897Z,1022.02
2017-11-07T02:16:23.908Z,1022.03
2017-11-07T02:17:23.927Z,1022.02
2017-11-07T02:18:23.941Z,1022.05
2017-11-07T02:19:23.956Z,1022.07
2017-11-07T02:20:23.969Z,1022.02
2017-11-07T02:21:23.988Z,1021.99
2017-11-07T02:22:24.003Z,1022.05
2017-11-07T02:23:24.014Z,1022.07
2017-11-07T02:24:24.033Z,1022.02
2017-11-07T02:25:24.045Z,1022.06
2017-11-07T02:27:24.077Z,1022.08
2017-11-07T02:28:24.093Z,1022.09
2017-11-07T02:29:24.108Z,1022.09
2017-11-07T02:30:24.125Z,1022.12
2017-11-07T02:31:24.137Z,1022.05
2017-11-07T02:32:24.152Z,1022.12
2017-11-07T02:33:24.170Z,1022.12
2017-11-07T02:34:24.183Z,1022.14
2017-11-07T02:35:24.208Z,1022.11
2017-11-07T02:36:24.213Z,1022.15
2017-11-07T02:37:24.232Z,1022.16
2017-11-07T02:38:24.246Z,1022.17
2017-11-07T02:39:24.263Z,1022.16
2017-11-07T02:40:24.279Z,1022.2
2017-11-07T02:42:24.308Z,1022.16
2017-11-07T02:43:24.318Z,1022.2
2017-11-07T02:44:24.334Z,1022.16
2017-11-07T02:45:24.356Z,1022.13
2017-11-07T02:46:24.365Z,1022.11
2017-11-07T02:47:24.382Z,1022.11
2017-11-07T02:48:24.395Z,1022.15
2017-11-07T02:49:24.412Z,1022.15
2017-11-07T02:50:24.428Z,1022.15
2017-11-07T02:51:24.441Z,1022.15
2017-11-07T02:52:24.459Z,1022.1
2017-11-07T02:53:24.471Z,1022.14
2017-11-07T02:54:24.484Z,1022.13
2017-11-07T02:55:24.500Z,1022.17
2017-11-07T02:56:24.525Z,1022.11
2017-11-07T02:57:24.532Z,1022.11
2017-11-07T02:58:24.547Z,1022.1
2017-11-07T02:59:24.560Z,1022.13
2017-11-07T03:00:24.581Z,1022.13
2017-11-07T03:01:24.590Z,1022.17
2017-11-07T03:02:24.606Z,1022.17
2017-11-07T03:03:24.625Z,1022.14
2017-11-07T03:04:24.639Z,1022.12
2017-11-07T03:05:24.651Z,1022.07
2017-11-07T03:06:24.673Z,1022.14
2017-11-07T03:07:24.685Z,1022.11
2017-11-07T03:08:24.698Z,1022.08
2017-11-07T03:09:24.715Z,1022.04
2017-11-07T03:10:24.726Z,1022.03
2017-11-07T03:11:24.741Z,1022.03
2017-11-07T03:12:24.756Z,1022.06
2017-11-07T03:14:24.788Z,1022.03
2017-11-07T03:15:24.804Z,1022.03
2017-11-07T03:16:24.816Z,1022.07
2017-11-07T03:17:24.835Z,1022.06
2017-11-07T03:18:24.846Z,1022.06
2017-11-07T03:19:24.865Z,1022.08
2017-11-07T03:20:24.879Z,1022.06
2017-11-07T03:21:24.894Z,1022.07
2017-11-07T03:22:24.908Z,1022.08
2017-11-07T03:23:24.923Z,1022.07
2017-11-07T03:24:24.937Z,1022.03
2017-11-07T03:25:24.956Z,1022.06
2017-11-07T03:26:24.968Z,1022.09
2017-11-07T03:27:24.984Z,1022.08
2017-11-07T03:28:24.997Z,1022.04
2017-11-07T03:30:25.031Z,1022.08
2017-11-07T03:31:25.045Z,1022.09
2017-11-07T03:32:25.061Z,1022.09
2017-11-07T03:33:25.073Z,1022.1
2017-11-07T03:34:25.090Z,1022.07
2017-11-07T03:35:25.101Z,1022.02
2017-11-07T03:36:25.116Z,1021.99
2017-11-07T03:37:25.138Z,1022
2017-11-07T03:38:25.151Z,1021.99
2017-11-07T03:39:25.165Z,1021.98
2017-11-07T03:40:25.178Z,1021.98
2017-11-07T03:41:25.196Z,1022.02
2017-11-07T03:42:25.209Z,1022
2017-11-07T03:43:25.222Z,1022.02
2017-11-07T03:44:25.238Z,1022.01
2017-11-07T03:46:25.266Z,1022.05
2017-11-07T03:47:25.285Z,1022.06
2017-11-07T03:48:25.301Z,1022.07
2017-11-07T03:49:25.314Z,1022.07
2017-11-07T03:50:25.330Z,1022.04
2017-11-07T03:51:25.344Z,1022.02
2017-11-07T03:52:25.356Z,1022
2017-11-07T03:53:25.370Z,1021.98
2017-11-07T03:54:25.387Z,1022
2017-11-07T03:55:25.403Z,1021.96
2017-11-07T03:56:25.415Z,1022.03
2017-11-07T03:57:25.433Z,1022.02
2017-11-07T03:58:25.450Z,1022.02
2017-11-07T03:59:25.464Z,1022
2017-11-07T04:00:25.476Z,1021.99
2017-11-07T04:02:25.507Z,1021.98
2017-11-07T04:03:25.525Z,1021.98
2017-11-07T04:04:25.539Z,1022.03
2017-11-07T04:05:25.550Z,1022.03
2017-11-07T04:06:25.565Z,1021.99
2017-11-07T04:07:25.580Z,1022
2017-11-07T04:08:25.595Z,1022.04
2017-11-07T04:09:25.610Z,1021.99
2017-11-07T04:10:25.625Z,1022.01
2017-11-07T04:11:25.642Z,1021.99
2017-11-07T04:12:25.654Z,1021.97
2017-11-07T04:13:25.668Z,1021.95
2017-11-07T04:14:25.683Z,1021.96
2017-11-07T04:15:25.702Z,1021.9
2017-11-07T04:17:25.732Z,1021.98
2017-11-07T04:18:25.745Z,1021.97
2017-11-07T04:19:25.758Z,1021.98
2017-11-07T04:20:25.777Z,1021.95
2017-11-07T04:21:25.792Z,1021.94
2017-11-07T04:22:25.806Z,1021.96
2017-11-07T04:23:25.817Z,1021.95
2017-11-07T04:24:25.836Z,1021.96
2017-11-07T04:25:25.846Z,1021.98
2017-11-07T04:26:25.862Z,1021.98
2017-11-07T04:27:25.877Z,1021.98
2017-11-07T04:28:25.901Z,1021.96
2017-11-07T04:29:25.905Z,1021.95
2017-11-07T04:30:25.919Z,1021.95
2017-11-07T04:31:25.942Z,1021.92
2017-11-07T04:32:25.949Z,1021.95
2017-11-07T04:33:25.965Z,1021.95
2017-11-07T04:34:25.985Z,1021.91
2017-11-07T04:35:25.997Z,1021.94
2017-11-07T04:36:26.012Z,1021.9
2017-11-07T04:37:26.025Z,1021.93
2017-11-07T04:38:26.039Z,1021.91
2017-11-07T04:39:26.056Z,1021.9
2017-11-07T04:40:26.067Z,1021.94
2017-11-07T04:41:26.081Z,1021.92
2017-11-07T04:42:26.100Z,1021.91
2017-11-07T04:43:26.114Z,1021.85
2017-11-07T04:44:26.126Z,1021.85
2017-11-07T04:45:26.143Z,1021.85
2017-11-07T04:46:26.158Z,1021.81
2017-11-07T04:47:26.172Z,1021.84
2017-11-07T04:49:26.198Z,1021.85
2017-11-07T04:50:26.215Z,1021.86
2017-11-07T04:51:26.226Z,1021.83
2017-11-07T04:52:26.243Z,1021.82
2017-11-07T04:53:26.264Z,1021.86
2017-11-07T04:54:26.278Z,1021.83
2017-11-07T04:55:26.289Z,1021.84
2017-11-07T04:56:26.303Z,1021.86
2017-11-07T04:57:26.316Z,1021.84
2017-11-07T04:58:26.330Z,1021.84
2017-11-07T04:59:26.343Z,1021.87
2017-11-07T05:00:26.358Z,1021.83
2017-11-07T05:01:26.378Z,1021.83
2017-11-07T05:02:26.387Z,1021.81
2017-11-07T05:03:26.405Z,1021.79
2017-11-07T05:05:26.435Z,1021.76
2017-11-07T05:06:26.446Z,1021.76
2017-11-07T05:07:26.460Z,1021.78
2017-11-07T05:08:26.476Z,1021.75
2017-11-07T05:09:26.489Z,1021.74
2017-11-07T05:10:26.506Z,1021.75
2017-11-07T05:11:26.518Z,1021.73
2017-11-07T05:12:26.534Z,1021.71
2017-11-07T05:13:26.546Z,1021.73
2017-11-07T05:14:26.561Z,1021.68
2017-11-07T05:15:26.575Z,1021.71
2017-11-07T05:16:26.594Z,1021.69
2017-11-07T05:17:26.604Z,1021.66
2017-11-07T05:18:26.646Z,1021.68
2017-11-07T05:19:26.636Z,1021.74
2017-11-07T05:21:26.669Z,1021.75
2017-11-07T05:22:26.676Z,1021.77
2017-11-07T05:23:26.695Z,1021.72
2017-11-07T05:24:26.710Z,1021.75
2017-11-07T05:25:26.723Z,1021.74
2017-11-07T05:26:26.735Z,1021.73
2017-11-07T05:27:26.751Z,1021.74
2017-11-07T05:28:26.764Z,1021.75
2017-11-07T05:29:26.779Z,1021.73
2017-11-07T05:30:26.793Z,1021.72
2017-11-07T05:31:26.809Z,1021.75
2017-11-07T05:32:26.824Z,1021.77
2017-11-07T05:33:26.842Z,1021.75
2017-11-07T05:34:26.854Z,1021.72
2017-11-07T05:35:26.863Z,1021.75
2017-11-07T05:37:26.896Z,1021.71
2017-11-07T05:38:26.912Z,1021.74
2017-11-07T05:39:26.925Z,1021.7
2017-11-07T05:40:26.936Z,1021.68
2017-11-07T05:41:26.951Z,1021.69
2017-11-07T05:42:26.964Z,1021.72
2017-11-07T05:43:26.979Z,1021.75
2017-11-07T05:44:26.994Z,1021.75
2017-11-07T05:45:27.013Z,1021.78
2017-11-07T05:46:27.025Z,1021.78
2017-11-07T05:47:27.036Z,1021.8
2017-11-07T05:48:27.406Z,1021.74
2017-11-07T05:49:27.081Z,1021.73
2017-11-07T05:50:27.081Z,1021.7
2017-11-07T05:52:27.109Z,1021.77
2017-11-07T05:53:27.123Z,1021.71
2017-11-07T05:54:27.142Z,1021.75
2017-11-07T05:55:27.152Z,1021.74
2017-11-07T05:56:27.171Z,1021.72
2017-11-07T05:57:27.182Z,1021.73
2017-11-07T05:58:27.200Z,1021.7
2017-11-07T05:59:27.213Z,1021.7
2017-11-07T06:00:27.225Z,1021.72
2017-11-07T06:01:27.239Z,1021.64
2017-11-07T06:02:27.253Z,1021.69
2017-11-07T06:03:27.270Z,1021.66
2017-11-07T06:04:27.285Z,1021.64
2017-11-07T06:05:27.299Z,1021.67
2017-11-07T06:06:27.310Z,1021.66
2017-11-07T06:07:27.324Z,1021.66
2017-11-07T06:08:27.339Z,1021.68
2017-11-07T06:09:27.353Z,1021.65
2017-11-07T06:10:27.370Z,1021.61
2017-11-07T06:11:27.381Z,1021.65
2017-11-07T06:12:27.395Z,1021.64
2017-11-07T06:13:27.414Z,1021.65
2017-11-07T06:14:27.425Z,1021.67
2017-11-07T06:15:27.441Z,1021.66
2017-11-07T06:16:27.454Z,1021.67
2017-11-07T06:17:27.467Z,1021.65
2017-11-07T06:18:27.482Z,1021.7
2017-11-07T06:19:27.496Z,1021.7
2017-11-07T06:20:27.514Z,1021.69
2017-11-07T06:21:27.525Z,1021.71
2017-11-07T06:22:27.543Z,1021.71
2017-11-07T06:24:27.568Z,1021.75
2017-11-07T06:25:27.586Z,1021.73
2017-11-07T06:26:27.600Z,1021.75
2017-11-07T06:27:27.619Z,1021.7
2017-11-07T06:28:27.624Z,1021.73
2017-11-07T06:29:27.643Z,1021.78
2017-11-07T06:30:27.657Z,1021.8
2017-11-07T06:31:27.672Z,1021.81
2017-11-07T06:32:27.683Z,1021.77
2017-11-07T06:33:27.702Z,1021.8
2017-11-07T06:34:27.716Z,1021.83
2017-11-07T06:35:27.726Z,1021.83
2017-11-07T06:36:27.744Z,1021.86
2017-11-07T06:37:27.754Z,1021.87
2017-11-07T06:38:27.768Z,1021.9
2017-11-07T06:40:27.801Z,1021.92
2017-11-07T06:41:27.815Z,1021.88
2017-11-07T06:42:27.828Z,1021.9
2017-11-07T06:43:27.845Z,1021.87
2017-11-07T06:44:27.866Z,1021.88
2017-11-07T06:45:27.873Z,1021.88
2017-11-07T06:46:27.888Z,1021.87
2017-11-07T06:47:27.904Z,1021.91
2017-11-07T06:48:27.913Z,1021.89
2017-11-07T06:49:27.933Z,1021.93
2017-11-07T06:50:27.947Z,1021.91
2017-11-07T06:51:27.965Z,1021.91
2017-11-07T06:52:27.973Z,1021.93
2017-11-07T06:53:27.987Z,1021.94
2017-11-07T06:54:28.005Z,1021.99
2017-11-07T06:56:28.046Z,1021.92
2017-11-07T06:57:28.061Z,1021.93
2017-11-07T06:58:28.064Z,1021.91
2017-11-07T06:59:28.078Z,1021.96
2017-11-07T07:00:28.088Z,1021.93
2017-11-07T07:01:28.103Z,1021.95
2017-11-07T07:02:28.119Z,1021.97
2017-11-07T07:03:28.133Z,1021.96
2017-11-07T07:04:28.153Z,1021.93
2017-11-07T07:05:28.165Z,1021.91
2017-11-07T07:06:28.527Z,1021.91
2017-11-07T07:07:28.195Z,1021.92
2017-11-07T07:08:28.207Z,1021.93
2017-11-07T07:09:28.225Z,1021.93
2017-11-07T07:10:28.238Z,1021.98
2017-11-07T07:12:28.268Z,1021.97
2017-11-07T07:13:28.281Z,1021.93
2017-11-07T07:14:28.298Z,1021.95
2017-11-07T07:15:28.315Z,1021.92
2017-11-07T07:16:28.328Z,1021.98
2017-11-07T07:17:28.347Z,1021.92
2017-11-07T07:18:28.360Z,1021.9
2017-11-07T07:19:28.373Z,1021.9
2017-11-07T07:20:28.393Z,1021.87
2017-11-07T07:21:28.405Z,1021.91
2017-11-07T07:22:28.420Z,1021.92
2017-11-07T07:23:28.436Z,1021.98
2017-11-07T07:24:28.456Z,1021.92
2017-11-07T07:25:28.471Z,1021.93
2017-11-07T07:27:28.503Z,1021.92
2017-11-07T07:28:28.518Z,1021.97
2017-11-07T07:29:28.536Z,1021.94
2017-11-07T07:30:28.551Z,1021.93
2017-11-07T07:31:28.566Z,1021.95
2017-11-07T07:32:28.584Z,1021.98
2017-11-07T07:33:28.603Z,1021.96
2017-11-07T07:34:28.616Z,1021.97
2017-11-07T07:35:28.630Z,1021.96
2017-11-07T07:36:28.660Z,1021.92
2017-11-07T07:37:28.663Z,1021.92
2017-11-07T07:38:28.684Z,1021.9
2017-11-07T07:39:28.700Z,1021.91
2017-11-07T07:40:28.731Z,1021.91
2017-11-07T07:41:28.730Z,1021.91
2017-11-07T07:42:28.752Z,1021.92
2017-11-07T07:43:28.763Z,1021.97
2017-11-07T07:44:28.780Z,1021.97
2017-11-07T07:45:28.803Z,1021.96
2017-11-07T07:46:28.818Z,1021.93
2017-11-07T07:47:28.830Z,1021.89
2017-11-07T07:48:28.851Z,1021.9
2017-11-07T07:49:28.868Z,1021.93
2017-11-07T07:50:28.892Z,1021.89
2017-11-07T07:51:28.901Z,1021.91
2017-11-07T07:52:28.919Z,1021.95
2017-11-07T07:53:28.932Z,1021.92
2017-11-07T07:54:28.951Z,1021.93
2017-11-07T07:55:28.965Z,1021.91
2017-11-07T07:56:28.986Z,1021.92
2017-11-07T07:57:29.002Z,1021.95
2017-11-07T07:59:29.033Z,1021.94
2017-11-07T08:00:29.051Z,1021.94
2017-11-07T08:01:29.070Z,1021.94
2017-11-07T08:02:29.088Z,1021.91
2017-11-07T08:03:29.101Z,1021.89
2017-11-07T08:04:29.122Z,1021.9
2017-11-07T08:05:29.145Z,1021.92
2017-11-07T08:06:29.159Z,1021.91
2017-11-07T08:07:29.171Z,1021.93
2017-11-07T08:08:29.186Z,1021.92
2017-11-07T08:09:29.211Z,1021.9
2017-11-07T08:10:29.221Z,1021.88
2017-11-07T08:11:29.239Z,1021.9
2017-11-07T08:12:29.255Z,1021.88
2017-11-07T08:13:29.272Z,1021.85
2017-11-07T08:15:29.310Z,1021.92
2017-11-07T08:16:29.327Z,1021.91
2017-11-07T08:17:29.345Z,1021.94
2017-11-07T08:18:29.362Z,1021.94
2017-11-07T08:19:29.376Z,1021.93
2017-11-07T08:20:29.403Z,1021.96
2017-11-07T08:21:29.415Z,1021.95
2017-11-07T08:22:29.431Z,1021.88
2017-11-07T08:23:29.445Z,1021.93
2017-11-07T08:24:29.463Z,1021.93
2017-11-07T08:25:29.499Z,1021.89
2017-11-07T08:26:29.499Z,1021.91
2017-11-07T08:27:29.523Z,1021.9
2017-11-07T08:28:29.533Z,1021.87
2017-11-07T08:29:29.558Z,1021.9
2017-11-07T08:31:29.588Z,1021.93
2017-11-07T08:32:29.607Z,1021.87
2017-11-07T08:33:29.622Z,1021.85
2017-11-07T08:34:29.639Z,1021.84
2017-11-07T08:35:29.657Z,1021.81
2017-11-07T08:36:29.676Z,1021.82
2017-11-07T08:37:29.693Z,1021.82
2017-11-07T08:38:29.724Z,1021.84
2017-11-07T08:39:29.729Z,1021.78
2017-11-07T08:40:29.745Z,1021.81
2017-11-07T08:41:29.761Z,1021.75
2017-11-07T08:42:29.783Z,1021.78
2017-11-07T08:43:29.796Z,1021.78
2017-11-07T08:44:29.819Z,1021.79
2017-11-07T08:45:29.843Z,1021.77
2017-11-07T08:47:29.868Z,1021.82
2017-11-07T08:48:29.890Z,1021.76
2017-11-07T08:49:29.907Z,1021.79
2017-11-07T08:50:29.923Z,1021.82
2017-11-07T08:51:29.943Z,1021.77
2017-11-07T08:52:29.960Z,1021.75
2017-11-07T08:53:29.979Z,1021.76
2017-11-07T08:54:29.997Z,1021.76
2017-11-07T08:55:30.015Z,1021.71
2017-11-07T08:56:30.028Z,1021.76
2017-11-07T08:57:30.057Z,1021.77
2017-11-07T08:58:30.064Z,1021.75
2017-11-07T08:59:30.086Z,1021.69
2017-11-07T09:00:30.101Z,1021.76
2017-11-07T09:02:30.137Z,1021.78
2017-11-07T09:03:30.156Z,1021.72
2017-11-07T09:04:30.174Z,1021.72
2017-11-07T09:05:30.195Z,1021.67
2017-11-07T09:06:30.211Z,1021.69
2017-11-07T09:07:30.230Z,1021.7
2017-11-07T09:08:30.246Z,1021.66
2017-11-07T09:09:30.264Z,1021.72
2017-11-07T09:10:30.281Z,1021.66
2017-11-07T09:11:30.299Z,1021.64
2017-11-07T09:12:30.319Z,1021.66
2017-11-07T09:13:30.339Z,1021.66
2017-11-07T09:14:30.357Z,1021.74
2017-11-07T09:15:30.376Z,1021.72
2017-11-07T09:16:30.390Z,1021.68
2017-11-07T09:17:30.410Z,1021.71
2017-11-07T09:18:30.428Z,1021.68
2017-11-07T09:19:30.444Z,1021.68
2017-11-07T09:20:30.466Z,1021.67
2017-11-07T09:21:30.482Z,1021.69
2017-11-07T09:22:30.503Z,1021.67
2017-11-07T09:23:30.520Z,1021.69
2017-11-07T09:24:30.537Z,1021.7
2017-11-07T09:25:30.557Z,1021.66
2017-11-07T09:26:30.574Z,1021.67
2017-11-07T09:27:30.592Z,1021.65
2017-11-07T09:28:30.611Z,1021.66
2017-11-07T09:29:30.631Z,1021.63
2017-11-07T09:30:30.654Z,1021.61
2017-11-07T09:31:30.669Z,1021.59
2017-11-07T09:32:30.684Z,1021.55
2017-11-07T09:34:30.727Z,1021.6
2017-11-07T09:35:30.740Z,1021.56
2017-11-07T09:36:30.756Z,1021.51
2017-11-07T09:37:30.779Z,1021.56
2017-11-07T09:38:30.798Z,1021.53
2017-11-07T09:39:30.818Z,1021.52
2017-11-07T09:40:30.832Z,1021.5
2017-11-07T09:41:30.851Z,1021.5
2017-11-07T09:42:30.872Z,1021.51
2017-11-07T09:43:30.890Z,1021.49
2017-11-07T09:44:30.909Z,1021.51
2017-11-07T09:45:30.927Z,1021.53
2017-11-07T09:46:30.948Z,1021.5
2017-11-07T09:47:30.965Z,1021.53
2017-11-07T09:48:30.980Z,1021.53
2017-11-07T09:50:31.019Z,1021.49
2017-11-07T09:51:31.044Z,1021.53
2017-11-07T09:52:31.059Z,1021.51
2017-11-07T09:53:31.078Z,1021.51
2017-11-07T09:54:31.094Z,1021.49
2017-11-07T09:55:31.113Z,1021.47
2017-11-07T09:56:31.130Z,1021.49
2017-11-07T09:57:31.155Z,1021.45
2017-11-07T09:58:31.168Z,1021.49
2017-11-07T09:59:31.192Z,1021.5
2017-11-07T10:00:31.206Z,1021.48
2017-11-07T10:01:31.229Z,1021.48
2017-11-07T10:02:31.247Z,1021.51
2017-11-07T10:03:31.265Z,1021.52
2017-11-07T10:04:31.286Z,1021.52
2017-11-07T10:06:31.352Z,1021.46
2017-11-07T10:07:31.341Z,1021.46
2017-11-07T10:08:31.357Z,1021.45
2017-11-07T10:09:31.378Z,1021.42
2017-11-07T10:10:31.400Z,1021.43
2017-11-07T10:11:31.419Z,1021.41
2017-11-07T10:12:31.436Z,1021.36
2017-11-07T10:13:31.453Z,1021.32
2017-11-07T10:14:31.470Z,1021.34
2017-11-07T10:15:31.494Z,1021.32
2017-11-07T10:16:31.510Z,1021.36
2017-11-07T10:17:31.528Z,1021.28
2017-11-07T10:18:31.548Z,1021.32
2017-11-07T10:19:31.565Z,1021.27
2017-11-07T10:20:31.581Z,1021.31
2017-11-07T10:22:31.624Z,1021.29
2017-11-07T10:23:31.639Z,1021.27
2017-11-07T10:24:31.660Z,1021.2
2017-11-07T10:25:31.682Z,1021.2
2017-11-07T10:26:31.696Z,1021.22
2017-11-07T10:27:31.713Z,1021.19
2017-11-07T10:28:31.747Z,1021.17
2017-11-07T10:29:31.752Z,1021.13
2017-11-07T10:30:31.777Z,1021.11
2017-11-07T10:31:31.791Z,1021.1
2017-11-07T10:32:31.811Z,1021.06
2017-11-07T10:33:31.841Z,1021.08
2017-11-07T10:34:31.849Z,1021.09
2017-11-07T10:35:31.865Z,1021.06
2017-11-07T10:37:31.905Z,1021.06
2017-11-07T10:38:31.925Z,1021.02
2017-11-07T10:39:31.940Z,1020.97
2017-11-07T10:40:31.962Z,1020.98
2017-11-07T10:41:31.978Z,1020.97
2017-11-07T10:42:31.998Z,1020.94
2017-11-07T10:43:32.014Z,1020.94
2017-11-07T10:44:32.034Z,1020.97
2017-11-07T10:45:32.055Z,1020.97
2017-11-07T10:46:32.077Z,1020.95
2017-11-07T10:47:32.094Z,1020.92
2017-11-07T10:48:32.112Z,1020.94
2017-11-07T10:49:32.128Z,1020.93
2017-11-07T10:50:32.148Z,1020.9
2017-11-07T10:51:32.170Z,1020.93
2017-11-07T10:52:32.189Z,1020.86
2017-11-07T10:53:32.206Z,1020.96
2017-11-07T10:54:32.227Z,1020.88
2017-11-07T10:55:32.243Z,1020.87
2017-11-07T10:56:32.264Z,1020.85
2017-11-07T10:57:32.280Z,1020.95
2017-11-07T10:58:32.302Z,1020.81
2017-11-07T10:59:32.318Z,1020.83
2017-11-07T11:00:32.341Z,1020.76
2017-11-07T11:01:32.358Z,1020.82
2017-11-07T11:02:32.374Z,1020.82
2017-11-07T11:03:32.395Z,1020.81
2017-11-07T11:04:32.415Z,1020.82
2017-11-07T11:05:32.434Z,1020.75
2017-11-07T11:06:32.450Z,1020.83
2017-11-07T11:07:32.474Z,1020.8
2017-11-07T11:09:32.510Z,1020.75
2017-11-07T11:10:32.527Z,1020.78
2017-11-07T11:11:32.562Z,1020.8
2017-11-07T11:12:32.573Z,1020.76
2017-11-07T11:13:32.584Z,1020.78
2017-11-07T11:14:32.603Z,1020.74
2017-11-07T11:15:32.622Z,1020.72
2017-11-07T11:16:32.644Z,1020.68
2017-11-07T11:17:32.665Z,1020.64
2017-11-07T11:18:32.678Z,1020.63
2017-11-07T11:19:32.700Z,1020.63
2017-11-07T11:20:32.717Z,1020.62
2017-11-07T11:21:32.744Z,1020.63
2017-11-07T11:22:32.757Z,1020.61
2017-11-07T11:23:32.780Z,1020.57
2017-11-07T11:25:32.815Z,1020.54
2017-11-07T11:26:32.835Z,1020.53
2017-11-07T11:27:32.854Z,1020.5
2017-11-07T11:28:32.873Z,1020.49
2017-11-07T11:29:32.892Z,1020.48
2017-11-07T11:30:32.910Z,1020.55
2017-11-07T11:31:32.929Z,1020.51
2017-11-07T11:32:32.949Z,1020.48
2017-11-07T11:33:32.963Z,1020.47
2017-11-07T11:34:32.984Z,1020.41
2017-11-07T11:35:33.003Z,1020.4
2017-11-07T11:36:33.025Z,1020.39
2017-11-07T11:37:33.044Z,1020.35
2017-11-07T11:38:33.058Z,1020.41
2017-11-07T11:39:33.081Z,1020.4
2017-11-07T11:41:33.118Z,1020.36
2017-11-07T11:42:33.137Z,1020.3
2017-11-07T11:43:33.154Z,1020.36
2017-11-07T11:44:33.176Z,1020.33
2017-11-07T11:45:33.194Z,1020.3
2017-11-07T11:46:33.218Z,1020.31
2017-11-07T11:47:33.235Z,1020.28
2017-11-07T11:48:33.251Z,1020.27
2017-11-07T11:49:33.267Z,1020.24
2017-11-07T11:50:33.289Z,1020.23
2017-11-07T11:51:33.308Z,1020.19
2017-11-07T11:52:33.324Z,1020.14
2017-11-07T11:53:33.343Z,1020.17
2017-11-07T11:54:33.366Z,1020.17
2017-11-07T11:55:33.388Z,1020.14
2017-11-07T11:57:33.417Z,1020.14
2017-11-07T11:58:33.436Z,1020.14
2017-11-07T11:59:33.456Z,1020.1
2017-11-07T12:00:33.480Z,1020.11
2017-11-07T12:01:33.500Z,1020.08
2017-11-07T12:02:33.511Z,1020.09
2017-11-07T12:03:33.534Z,1020.01
2017-11-07T12:04:33.554Z,1020.02
2017-11-07T12:05:33.571Z,1020.06
2017-11-07T12:06:33.590Z,1020.03
2017-11-07T12:07:33.615Z,1019.96
2017-11-07T12:08:33.629Z,1019.95
2017-11-07T12:09:33.646Z,1019.96
2017-11-07T12:10:33.666Z,1019.93
2017-11-07T12:12:33.703Z,1019.91
2017-11-07T12:13:33.721Z,1019.89
2017-11-07T12:14:33.741Z,1019.83
2017-11-07T12:15:33.760Z,1019.84
2017-11-07T12:16:33.782Z,1019.83
2017-11-07T12:17:33.801Z,1019.8
2017-11-07T12:18:33.817Z,1019.83
2017-11-07T12:19:33.835Z,1019.82
2017-11-07T12:20:33.853Z,1019.8
2017-11-07T12:21:33.873Z,1019.8
2017-11-07T12:22:33.897Z,1019.87
2017-11-07T12:23:33.913Z,1019.84
2017-11-07T12:24:33.934Z,1019.78
2017-11-07T12:25:33.954Z,1019.77
2017-11-07T12:26:33.968Z,1019.76
2017-11-07T12:27:33.991Z,1019.8
2017-11-07T12:28:34.007Z,1019.77
2017-11-07T12:29:34.025Z,1019.78
2017-11-07T12:30:34.050Z,1019.75
2017-11-07T12:31:34.065Z,1019.77
2017-11-07T12:32:34.087Z,1019.72
2017-11-07T12:33:34.104Z,1019.73
2017-11-07T12:34:34.123Z,1019.76
2017-11-07T12:35:34.145Z,1019.75
2017-11-07T12:36:34.165Z,1019.75
2017-11-07T12:37:34.179Z,1019.74
2017-11-07T12:38:34.201Z,1019.77
2017-11-07T12:39:34.217Z,1019.75
2017-11-07T12:40:34.240Z,1019.77
2017-11-07T12:41:34.261Z,1019.77
2017-11-07T12:42:34.276Z,1019.78
2017-11-07T12:44:34.315Z,1019.77
2017-11-07T12:45:34.338Z,1019.72
2017-11-07T12:46:34.354Z,1019.75
2017-11-07T12:47:34.372Z,1019.7
2017-11-07T12:48:34.390Z,1019.74
2017-11-07T12:49:34.409Z,1019.72